createdAt,value
2018-03-23T00:00:59.906Z,39.70
2018-03-23T00:01:59.852Z,40.60
2018-03-23T00:02:59.801Z,41.00
2018-03-23T00:03:59.800Z,39.80
2018-03-23T00:04:59.734Z,41.60
2018-03-23T00:05:59.701Z,41.50
2018-03-23T00:06:59.639Z,41.90
2018-03-23T00:07:59.592Z,41.90
2018-03-23T00:08:59.641Z,40.60
2018-03-23T00:09:59.511Z,40.00
2018-03-23T00:10:59.507Z,41.20
2018-03-23T00:11:59.421Z,41.40
2018-03-23T00:12:59.402Z,42.60
2018-03-23T00:13:59.350Z,41.80
2018-03-23T00:14:59.299Z,42.40
2018-03-23T00:15:59.262Z,42.10
2018-03-23T00:16:59.271Z,41.70
2018-03-23T00:17:59.208Z,43.20
2018-03-23T00:18:59.146Z,42.50
2018-03-23T00:19:59.086Z,42.20
2018-03-23T00:20:59.058Z,42.30
2018-03-23T00:21:59.014Z,42.10
2018-03-23T00:22:58.996Z,41.90
2018-03-23T00:23:58.933Z,42.20
2018-03-23T00:24:58.884Z,42.50
2018-03-23T00:25:58.850Z,42.60
2018-03-23T00:26:58.799Z,43.20
2018-03-23T00:27:58.788Z,44.10
2018-03-23T00:28:58.720Z,44.00
2018-03-23T00:29:58.668Z,44.30
2018-03-23T00:30:58.646Z,46.40
2018-03-23T00:31:58.598Z,44.80
2018-03-23T00:32:58.557Z,45.80
2018-03-23T00:33:58.583Z,45.70
2018-03-23T00:34:58.469Z,46.20
2018-03-23T00:35:58.430Z,47.10
2018-03-23T00:36:58.384Z,47.00
2018-03-23T00:37:59.910Z,48.70
2018-03-23T00:38:58.318Z,49.10
2018-03-23T00:39:58.292Z,51.30
2018-03-23T00:40:58.222Z,51.00
2018-03-23T00:41:58.177Z,50.20
2018-03-23T00:42:58.143Z,50.90
2018-03-23T00:43:58.097Z,52.90
2018-03-23T00:44:58.075Z,50.90
2018-03-23T00:45:58.017Z,53.80
2018-03-23T00:46:57.973Z,51.00
2018-03-23T00:47:57.928Z,53.10
2018-03-23T00:48:57.885Z,53.30
2018-03-23T00:49:57.845Z,53.10
2018-03-23T00:50:57.836Z,54.70
2018-03-23T00:51:57.758Z,52.70
2018-03-23T00:52:57.718Z,54.40
2018-03-23T00:53:57.683Z,53.70
2018-03-23T00:54:57.640Z,54.20
2018-03-23T00:55:57.596Z,54.10
2018-03-23T00:56:57.579Z,54.30
2018-03-23T00:57:57.519Z,54.10
2018-03-23T00:58:57.467Z,55.40
2018-03-23T00:59:57.433Z,55.70
2018-03-23T01:00:57.388Z,54.90
2018-03-23T01:01:57.369Z,53.30
2018-03-23T01:02:57.309Z,54.50
2018-03-23T01:03:57.265Z,55.40
2018-03-23T01:04:57.217Z,53.70
2018-03-23T01:05:57.180Z,55.00
2018-03-23T01:06:57.134Z,56.00
2018-03-23T01:07:57.126Z,56.80
2018-03-23T01:08:57.060Z,57.60
2018-03-23T01:09:57.015Z,56.00
2018-03-23T01:10:56.971Z,56.60
2018-03-23T01:11:56.958Z,57.40
2018-03-23T01:12:56.890Z,57.50
2018-03-23T01:13:56.848Z,58.40
2018-03-23T01:14:56.814Z,56.80
2018-03-23T01:15:56.769Z,58.40
2018-03-23T01:16:56.745Z,59.40
2018-03-23T01:17:56.687Z,60.60
2018-03-23T01:18:56.635Z,60.20
2018-03-23T01:19:56.599Z,58.80
2018-03-23T01:20:56.563Z,58.50
2018-03-23T01:21:56.511Z,61.20
2018-03-23T01:22:56.503Z,61.70
2018-03-23T01:23:56.435Z,62.50
2018-03-23T01:24:56.396Z,62.10
2018-03-23T01:25:56.350Z,61.60
2018-03-23T01:26:56.306Z,62.20
2018-03-23T01:27:56.276Z,60.70
2018-03-23T01:28:56.256Z,62.10
2018-03-23T01:29:56.190Z,63.00
2018-03-23T01:30:56.136Z,64.20
2018-03-23T01:31:56.100Z,62.80
2018-03-23T01:32:56.058Z,63.20
2018-03-23T01:33:56.012Z,63.50
2018-03-23T01:34:56.004Z,61.80
2018-03-23T01:35:55.936Z,63.10
2018-03-23T01:36:55.893Z,64.20
2018-03-23T01:37:55.857Z,63.20
2018-03-23T01:38:55.806Z,63.60
2018-03-23T01:39:55.799Z,64.70
2018-03-23T01:40:55.724Z,63.20
2018-03-23T01:41:55.678Z,64.10
2018-03-23T01:42:55.644Z,66.30
2018-03-23T01:43:55.603Z,62.50
2018-03-23T01:44:55.561Z,63.00
2018-03-23T01:45:55.548Z,65.10
2018-03-23T01:46:55.479Z,64.30
2018-03-23T01:47:55.432Z,63.50
2018-03-23T01:48:55.389Z,62.40
2018-03-23T01:49:55.358Z,62.10
2018-03-23T01:50:55.312Z,60.70
2018-03-23T01:51:55.301Z,61.50
2018-03-23T01:52:55.235Z,62.60
2018-03-23T01:53:55.180Z,61.90
2018-03-23T01:54:55.151Z,60.70
2018-03-23T01:55:55.099Z,59.90
2018-03-23T01:56:55.086Z,59.50
2018-03-23T01:57:55.020Z,60.70
2018-03-23T01:58:54.979Z,59.60
2018-03-23T01:59:54.937Z,59.10
2018-03-23T02:00:54.889Z,59.40
2018-03-23T02:01:54.874Z,59.00
2018-03-23T02:02:54.813Z,57.50
2018-03-23T02:03:54.777Z,58.70
2018-03-23T02:04:54.736Z,59.00
2018-03-23T02:05:54.688Z,58.20
2018-03-23T02:06:54.673Z,58.50
2018-03-23T02:07:54.598Z,58.70
2018-03-23T02:08:54.567Z,57.90
2018-03-23T02:09:54.547Z,59.20
2018-03-23T02:10:54.482Z,58.30
2018-03-23T02:11:54.446Z,59.30
2018-03-23T02:12:54.427Z,61.60
2018-03-23T02:13:54.349Z,63.00
2018-03-23T02:14:54.313Z,62.30
2018-03-23T02:15:54.269Z,65.10
2018-03-23T02:16:54.234Z,64.80
2018-03-23T02:17:54.213Z,67.30
2018-03-23T02:18:54.155Z,66.30
2018-03-23T02:19:54.101Z,65.70
2018-03-23T02:20:54.068Z,68.90
2018-03-23T02:21:54.030Z,67.20
2018-03-23T02:22:53.985Z,71.30
2018-03-23T02:23:53.964Z,72.70
2018-03-23T02:24:53.900Z,75.20
2018-03-23T02:25:53.864Z,75.30
2018-03-23T02:26:53.818Z,73.70
2018-03-23T02:27:53.778Z,76.40
2018-03-23T02:28:53.753Z,74.40
2018-03-23T02:29:53.698Z,77.10
2018-03-23T02:30:53.646Z,78.70
2018-03-23T02:31:53.617Z,75.60
2018-03-23T02:32:53.569Z,75.00
2018-03-23T02:33:53.554Z,77.50
2018-03-23T02:34:53.482Z,75.70
2018-03-23T02:35:53.443Z,76.70
2018-03-23T02:36:53.409Z,76.10
2018-03-23T02:37:53.368Z,78.20
2018-03-23T02:38:53.328Z,77.90
2018-03-23T02:39:53.308Z,74.40
2018-03-23T02:40:53.240Z,71.50
2018-03-23T02:41:53.194Z,71.90
2018-03-23T02:42:53.149Z,70.80
2018-03-23T02:43:53.111Z,71.20
2018-03-23T02:44:53.080Z,69.60
2018-03-23T02:45:53.049Z,68.60
2018-03-23T02:46:52.996Z,66.70
2018-03-23T02:47:52.947Z,67.80
2018-03-23T02:48:52.906Z,67.40
2018-03-23T02:49:52.862Z,65.50
2018-03-23T02:50:52.855Z,65.80
2018-03-23T02:51:52.787Z,66.70
2018-03-23T02:52:52.751Z,66.60
2018-03-23T02:53:52.703Z,67.60
2018-03-23T02:54:52.653Z,65.30
2018-03-23T02:55:52.623Z,66.80
2018-03-23T02:56:52.596Z,63.70
2018-03-23T02:57:52.527Z,62.80
2018-03-23T02:58:52.494Z,62.80
2018-03-23T02:59:52.456Z,64.70
2018-03-23T03:00:52.411Z,62.70
2018-03-23T03:01:52.409Z,62.80
2018-03-23T03:02:52.329Z,64.80
2018-03-23T03:03:52.292Z,63.20
2018-03-23T03:04:52.246Z,62.10
2018-03-23T03:05:52.202Z,60.60
2018-03-23T03:06:52.157Z,61.20
2018-03-23T03:07:52.141Z,62.40
2018-03-23T03:08:52.081Z,61.50
2018-03-23T03:09:52.036Z,64.50
2018-03-23T03:10:52.000Z,64.40
2018-03-23T03:11:51.956Z,62.30
2018-03-23T03:12:51.979Z,62.70
2018-03-23T03:13:51.868Z,63.30
2018-03-23T03:14:51.829Z,61.40
2018-03-23T03:15:51.791Z,60.80
2018-03-23T03:16:51.749Z,64.40
2018-03-23T03:17:51.705Z,62.20
2018-03-23T03:18:51.690Z,60.90
2018-03-23T03:19:51.616Z,61.30
2018-03-23T03:20:51.579Z,60.40
2018-03-23T03:21:51.545Z,62.10
2018-03-23T03:22:51.498Z,60.20
2018-03-23T03:23:51.450Z,59.30
2018-03-23T03:24:51.439Z,60.70
2018-03-23T03:25:51.376Z,60.40
2018-03-23T03:26:51.332Z,60.40
2018-03-23T03:27:51.289Z,60.70
2018-03-23T03:28:51.249Z,63.40
2018-03-23T03:29:51.207Z,65.60
2018-03-23T03:30:51.197Z,66.10
2018-03-23T03:31:51.124Z,64.80
2018-03-23T03:32:51.096Z,64.10
2018-03-23T03:33:51.045Z,66.70
2018-03-23T03:34:50.998Z,68.00
2018-03-23T03:35:50.991Z,66.30
2018-03-23T03:36:50.909Z,66.40
2018-03-23T03:37:50.872Z,67.50
2018-03-23T03:38:50.823Z,67.80
2018-03-23T03:39:50.790Z,69.50
2018-03-23T03:40:50.755Z,68.70
2018-03-23T03:41:50.735Z,68.00
2018-03-23T03:42:50.691Z,71.10
2018-03-23T03:43:50.625Z,71.90
2018-03-23T03:44:50.575Z,72.30
2018-03-23T03:45:50.542Z,72.90
2018-03-23T03:46:50.499Z,75.10
2018-03-23T03:47:50.488Z,76.00
2018-03-23T03:48:50.420Z,77.10
2018-03-23T03:49:50.375Z,78.10
2018-03-23T03:50:50.332Z,74.90
2018-03-23T03:51:50.288Z,76.50
2018-03-23T03:52:50.292Z,79.40
2018-03-23T03:53:50.206Z,77.90
2018-03-23T03:54:50.176Z,79.30
2018-03-23T03:55:50.120Z,77.20
2018-03-23T03:56:50.078Z,77.90
2018-03-23T03:57:50.098Z,75.90
2018-03-23T03:58:50.000Z,73.90
2018-03-23T03:59:49.957Z,75.70
2018-03-23T04:00:49.926Z,72.70
2018-03-23T04:01:49.872Z,74.00
2018-03-23T04:02:49.831Z,75.10
2018-03-23T04:03:49.818Z,74.90
2018-03-23T04:04:49.749Z,71.60
2018-03-23T04:05:49.710Z,75.40
2018-03-23T04:06:49.663Z,74.10
2018-03-23T04:07:49.666Z,73.30
2018-03-23T04:08:49.586Z,78.90
2018-03-23T04:09:49.542Z,75.70
2018-03-23T04:10:49.497Z,75.00
2018-03-23T04:11:49.468Z,77.10
2018-03-23T04:12:49.422Z,77.70
2018-03-23T04:13:49.404Z,78.90
2018-03-23T04:14:49.338Z,78.30
2018-03-23T04:15:49.292Z,80.00
2018-03-23T04:16:49.249Z,80.80
2018-03-23T04:17:49.215Z,85.10
2018-03-23T04:18:49.182Z,83.70
2018-03-23T04:19:49.124Z,86.60
2018-03-23T04:20:49.079Z,87.80
2018-03-23T04:21:49.059Z,87.40
2018-03-23T04:22:49.005Z,85.20
2018-03-23T04:23:49.022Z,86.10
2018-03-23T04:24:48.960Z,86.10
2018-03-23T04:25:48.890Z,84.40
2018-03-23T04:26:48.831Z,84.00
2018-03-23T04:27:48.800Z,81.70
2018-03-23T04:28:48.742Z,83.40
2018-03-23T04:29:48.727Z,81.20
2018-03-23T04:30:48.660Z,77.80
2018-03-23T04:31:48.635Z,73.70
2018-03-23T04:32:48.583Z,71.40
2018-03-23T04:33:48.538Z,71.60
2018-03-23T04:34:48.553Z,70.30
2018-03-23T04:35:48.460Z,68.70
2018-03-23T04:36:48.413Z,66.90
2018-03-23T04:37:48.374Z,64.20
2018-03-23T04:38:48.329Z,66.40
2018-03-23T04:39:48.286Z,62.90
2018-03-23T04:40:48.273Z,64.80
2018-03-23T04:41:48.203Z,62.80
2018-03-23T04:42:48.166Z,61.30
2018-03-23T04:43:48.120Z,62.20
2018-03-23T04:44:48.080Z,61.90
2018-03-23T04:45:48.039Z,61.80
2018-03-23T04:46:48.020Z,60.10
2018-03-23T04:47:47.947Z,59.80
2018-03-23T04:48:47.903Z,60.20
2018-03-23T04:49:47.869Z,60.50
2018-03-23T04:50:47.848Z,59.60
2018-03-23T04:51:47.788Z,61.40
2018-03-23T04:52:47.740Z,63.60
2018-03-23T04:53:47.698Z,63.00
2018-03-23T04:54:47.655Z,62.40
2018-03-23T04:55:47.613Z,64.10
2018-03-23T04:56:47.605Z,58.90
2018-03-23T04:57:47.532Z,57.80
2018-03-23T04:58:47.495Z,54.20
2018-03-23T04:59:47.440Z,53.80
2018-03-23T05:00:47.396Z,54.80
2018-03-23T05:01:47.389Z,53.20
2018-03-23T05:02:47.324Z,51.00
2018-03-23T05:03:47.290Z,53.00
2018-03-23T05:04:47.241Z,54.00
2018-03-23T05:05:47.192Z,53.00
2018-03-23T05:06:47.156Z,51.30
2018-03-23T05:07:47.132Z,52.50
2018-03-23T05:08:47.063Z,54.60
2018-03-23T05:09:47.024Z,53.60
2018-03-23T05:10:46.984Z,53.90
2018-03-23T05:11:46.944Z,54.30
2018-03-23T05:12:46.898Z,54.50
2018-03-23T05:13:46.885Z,55.30
2018-03-23T05:14:46.813Z,54.50
2018-03-23T05:15:46.777Z,54.70
2018-03-23T05:16:46.731Z,50.70
2018-03-23T05:17:46.691Z,51.40
2018-03-23T05:18:46.666Z,50.40
2018-03-23T05:19:46.599Z,52.00
2018-03-23T05:20:46.564Z,50.80
2018-03-23T05:21:46.525Z,48.40
2018-03-23T05:22:46.501Z,46.60
2018-03-23T05:23:46.435Z,46.40
2018-03-23T05:24:46.433Z,45.60
2018-03-23T05:25:46.347Z,46.80
2018-03-23T05:26:46.316Z,44.40
2018-03-23T05:27:46.272Z,44.50
2018-03-23T05:28:46.255Z,43.20
2018-03-23T05:29:46.180Z,44.50
2018-03-23T05:30:46.165Z,43.60
2018-03-23T05:31:46.104Z,41.80
2018-03-23T05:32:46.057Z,44.70
2018-03-23T05:33:46.044Z,41.60
2018-03-23T05:34:45.968Z,42.00
2018-03-23T05:35:45.946Z,40.60
2018-03-23T05:36:45.890Z,40.50
2018-03-23T05:37:45.842Z,39.50
2018-03-23T05:38:45.809Z,39.50
2018-03-23T05:39:45.791Z,37.20
2018-03-23T05:40:45.732Z,39.50
2018-03-23T05:41:45.684Z,38.40
2018-03-23T05:42:45.641Z,39.40
2018-03-23T05:43:45.596Z,38.30
2018-03-23T05:44:45.554Z,37.20
2018-03-23T05:45:45.539Z,37.90
2018-03-23T05:46:45.474Z,36.80
2018-03-23T05:47:45.433Z,37.40
2018-03-23T05:48:45.391Z,38.10
2018-03-23T05:49:45.337Z,36.90
2018-03-23T05:50:45.302Z,37.00
2018-03-23T05:51:45.285Z,35.80
2018-03-23T05:52:45.217Z,35.50
2018-03-23T05:53:45.183Z,36.70
2018-03-23T05:54:45.130Z,36.80
2018-03-23T05:55:45.092Z,35.90
2018-03-23T05:56:45.073Z,35.90
2018-03-23T05:57:45.001Z,36.30
2018-03-23T05:58:44.972Z,36.70
2018-03-23T05:59:44.924Z,35.60
2018-03-23T06:00:44.887Z,34.90
2018-03-23T06:01:44.864Z,35.70
2018-03-23T06:02:44.805Z,34.90
2018-03-23T06:03:44.750Z,33.60
2018-03-23T06:04:44.719Z,34.80
2018-03-23T06:05:44.669Z,34.50
2018-03-23T06:06:44.631Z,33.90
2018-03-23T06:07:44.609Z,33.00
2018-03-23T06:08:44.546Z,33.60
2018-03-23T06:09:44.500Z,32.90
2018-03-23T06:10:44.461Z,34.20
2018-03-23T06:11:44.446Z,33.10
2018-03-23T06:12:44.379Z,33.00
2018-03-23T06:13:44.331Z,33.40
2018-03-23T06:14:44.298Z,33.30
2018-03-23T06:15:44.247Z,34.10
2018-03-23T06:16:44.209Z,33.10
2018-03-23T06:17:44.188Z,33.40
2018-03-23T06:18:44.121Z,33.00
2018-03-23T06:19:44.075Z,33.20
2018-03-23T06:20:44.043Z,34.40
2018-03-23T06:21:44.003Z,33.80
2018-03-23T06:22:43.992Z,33.70
2018-03-23T06:23:43.941Z,33.50
2018-03-23T06:24:43.871Z,33.40
2018-03-23T06:25:43.823Z,33.00
2018-03-23T06:26:43.791Z,32.80
2018-03-23T06:27:43.745Z,33.50
2018-03-23T06:28:43.731Z,32.20
2018-03-23T06:29:43.661Z,33.90
2018-03-23T06:30:43.613Z,32.60
2018-03-23T06:31:43.575Z,32.20
2018-03-23T06:32:43.534Z,33.90
2018-03-23T06:33:43.489Z,33.80
2018-03-23T06:34:43.472Z,32.40
2018-03-23T06:35:43.412Z,33.10
2018-03-23T06:36:43.369Z,32.70
2018-03-23T06:37:43.363Z,30.70
2018-03-23T06:38:43.280Z,32.00
2018-03-23T06:39:43.242Z,32.50
2018-03-23T06:40:43.215Z,30.20
2018-03-23T06:41:43.977Z,29.50
2018-03-23T06:42:43.110Z,31.00
2018-03-23T06:43:43.069Z,30.40
2018-03-23T06:44:43.033Z,29.30
2018-03-23T06:45:43.016Z,28.60
2018-03-23T06:46:42.945Z,29.20
2018-03-23T06:47:42.895Z,27.90
2018-03-23T06:48:42.858Z,27.30
2018-03-23T06:49:42.812Z,27.70
2018-03-23T06:50:42.780Z,28.20
2018-03-23T06:51:42.773Z,27.60
2018-03-23T06:52:42.690Z,27.70
2018-03-23T06:53:42.652Z,26.80
2018-03-23T06:54:42.606Z,27.70
2018-03-23T06:55:42.568Z,27.10
2018-03-23T06:56:42.523Z,26.40
2018-03-23T06:57:42.497Z,25.50
2018-03-23T06:58:42.440Z,25.10
2018-03-23T06:59:42.396Z,25.40
2018-03-23T07:00:42.353Z,25.50
2018-03-23T07:01:42.335Z,26.30
2018-03-23T07:02:42.291Z,26.10
2018-03-23T07:03:42.225Z,26.30
2018-03-23T07:04:42.187Z,26.70
2018-03-23T07:05:42.139Z,26.30
2018-03-23T07:06:42.093Z,24.50
2018-03-23T07:07:42.064Z,25.00
2018-03-23T07:08:42.053Z,24.50
2018-03-23T07:09:41.973Z,24.00
2018-03-23T07:10:41.932Z,23.90
2018-03-23T07:11:41.920Z,23.70
2018-03-23T07:12:41.851Z,22.90
2018-03-23T07:13:41.804Z,24.50
2018-03-23T07:14:41.790Z,24.70
2018-03-23T07:15:41.722Z,25.30
2018-03-23T07:16:41.689Z,25.10
2018-03-23T07:17:41.633Z,25.20
2018-03-23T07:18:41.602Z,25.60
2018-03-23T07:19:41.575Z,24.90
2018-03-23T07:20:41.513Z,25.20
2018-03-23T07:21:41.465Z,25.70
2018-03-23T07:22:41.430Z,24.90
2018-03-23T07:23:41.387Z,24.60
2018-03-23T07:24:41.372Z,25.20
2018-03-23T07:25:41.313Z,25.60
2018-03-23T07:26:41.263Z,24.80
2018-03-23T07:27:41.226Z,24.80
2018-03-23T07:28:41.178Z,25.00
2018-03-23T07:29:41.206Z,24.90
2018-03-23T07:30:41.095Z,25.00
2018-03-23T07:31:41.049Z,25.70
2018-03-23T07:32:41.009Z,24.60
2018-03-23T07:33:40.974Z,24.80
2018-03-23T07:34:40.961Z,24.70
2018-03-23T07:35:40.907Z,24.50
2018-03-23T07:36:40.841Z,24.30
2018-03-23T07:37:40.860Z,25.20
2018-03-23T07:38:40.763Z,24.00
2018-03-23T07:39:40.719Z,24.10
2018-03-23T07:40:40.718Z,24.90
2018-03-23T07:41:40.669Z,23.70
2018-03-23T07:42:40.602Z,23.40
2018-03-23T07:43:40.554Z,24.40
2018-03-23T07:44:40.509Z,22.70
2018-03-23T07:45:40.476Z,24.10
2018-03-23T07:46:40.452Z,23.30
2018-03-23T07:47:40.399Z,23.20
2018-03-23T07:48:40.352Z,24.20
2018-03-23T07:49:40.308Z,24.40
2018-03-23T07:50:40.261Z,24.10
2018-03-23T07:51:40.248Z,22.70
2018-03-23T07:52:40.184Z,23.00
2018-03-23T07:53:40.136Z,23.10
2018-03-23T07:54:40.107Z,23.30
2018-03-23T07:55:40.064Z,23.10
2018-03-23T07:56:40.051Z,23.20
2018-03-23T07:57:39.981Z,23.20
2018-03-23T07:58:39.935Z,22.70
2018-03-23T07:59:39.896Z,24.10
2018-03-23T08:00:39.852Z,23.20
2018-03-23T08:01:39.845Z,24.10
2018-03-23T08:02:39.775Z,23.80
2018-03-23T08:03:39.730Z,23.50
2018-03-23T08:04:39.687Z,23.80
2018-03-23T08:05:39.653Z,23.40
2018-03-23T08:06:39.604Z,23.60
2018-03-23T08:07:39.588Z,23.00
2018-03-23T08:08:39.523Z,22.50
2018-03-23T08:09:39.486Z,22.20
2018-03-23T08:10:39.437Z,22.60
2018-03-23T08:11:39.407Z,22.70
2018-03-23T08:12:39.385Z,22.40
2018-03-23T08:13:39.324Z,23.10
2018-03-23T08:14:39.279Z,23.50
2018-03-23T08:15:39.244Z,22.60
2018-03-23T08:16:39.192Z,23.80
2018-03-23T08:17:39.180Z,23.10
2018-03-23T08:18:39.115Z,22.20
2018-03-23T08:19:39.082Z,23.50
2018-03-23T08:20:39.041Z,22.90
2018-03-23T08:21:39.018Z,21.80
2018-03-23T08:22:38.952Z,20.40
2018-03-23T08:23:38.916Z,21.90
2018-03-23T08:24:38.873Z,21.60
2018-03-23T08:25:38.832Z,21.80
2018-03-23T08:26:38.821Z,21.90
2018-03-23T08:27:38.752Z,21.40
2018-03-23T08:28:38.707Z,21.50
2018-03-23T08:29:38.677Z,20.90
2018-03-23T08:30:38.625Z,21.80
2018-03-23T08:31:38.590Z,20.90
2018-03-23T08:32:38.591Z,21.50
2018-03-23T08:33:38.509Z,20.10
2018-03-23T08:34:38.466Z,19.40
2018-03-23T08:35:38.422Z,19.80
2018-03-23T08:36:38.388Z,20.60
2018-03-23T08:37:38.348Z,20.10
2018-03-23T08:38:38.363Z,19.00
2018-03-23T08:39:38.277Z,19.30
2018-03-23T08:40:38.224Z,19.30
2018-03-23T08:41:38.202Z,19.40
2018-03-23T08:42:38.145Z,19.90
2018-03-23T08:43:38.118Z,19.70
2018-03-23T08:44:38.102Z,19.90
2018-03-23T08:45:38.036Z,20.20
2018-03-23T08:46:37.992Z,20.30
2018-03-23T08:47:37.995Z,20.10
2018-03-23T08:48:37.916Z,20.10
2018-03-23T08:49:37.906Z,20.10
2018-03-23T08:50:37.833Z,20.10
2018-03-23T08:51:37.803Z,21.20
2018-03-23T08:52:37.758Z,20.00
2018-03-23T08:53:37.714Z,20.10
2018-03-23T08:54:37.679Z,19.50
2018-03-23T08:55:37.673Z,19.30
2018-03-23T08:56:37.608Z,19.50
2018-03-23T08:57:37.557Z,19.60
2018-03-23T08:58:37.529Z,19.20
2018-03-23T08:59:37.484Z,19.60
2018-03-23T09:00:37.446Z,19.70
2018-03-23T09:01:37.428Z,20.20
2018-03-23T09:02:37.361Z,19.40
2018-03-23T09:03:37.328Z,18.90
2018-03-23T09:04:37.294Z,19.60
2018-03-23T09:05:37.259Z,18.90
2018-03-23T09:06:37.259Z,18.80
2018-03-23T09:07:37.169Z,17.80
2018-03-23T09:08:37.129Z,17.50
2018-03-23T09:09:37.146Z,17.70
2018-03-23T09:10:37.057Z,16.60
2018-03-23T09:11:37.031Z,17.40
2018-03-23T09:12:36.998Z,16.70
2018-03-23T09:13:36.948Z,16.60
2018-03-23T09:14:36.907Z,16.40
2018-03-23T09:15:36.861Z,16.80
2018-03-23T09:16:36.875Z,16.80
2018-03-23T09:17:36.788Z,17.30
2018-03-23T09:18:36.754Z,16.60
2018-03-23T09:19:36.703Z,16.90
2018-03-23T09:20:36.714Z,16.70
2018-03-23T09:21:36.631Z,16.70
2018-03-23T09:22:36.617Z,17.10
2018-03-23T09:23:36.560Z,15.90
2018-03-23T09:24:36.525Z,16.70
2018-03-23T09:25:36.477Z,15.30
2018-03-23T09:26:36.440Z,15.80
2018-03-23T09:27:36.413Z,16.20
2018-03-23T09:28:36.387Z,16.00
2018-03-23T09:29:36.327Z,15.60
2018-03-23T09:30:36.289Z,15.20
2018-03-23T09:31:36.250Z,15.60
2018-03-23T09:32:36.210Z,16.20
2018-03-23T09:33:36.202Z,15.20
2018-03-23T09:34:36.128Z,14.50
2018-03-23T09:35:36.090Z,14.60
2018-03-23T09:36:36.059Z,14.40
2018-03-23T09:37:36.008Z,15.80
2018-03-23T09:38:35.986Z,16.30
2018-03-23T09:39:35.963Z,15.50
2018-03-23T09:40:35.897Z,15.10
2018-03-23T09:41:35.860Z,15.00
2018-03-23T09:42:35.822Z,12.80
2018-03-23T09:43:35.785Z,12.10
2018-03-23T09:44:35.749Z,12.50
2018-03-23T09:45:35.739Z,12.20
2018-03-23T09:46:35.660Z,12.40
2018-03-23T09:47:35.636Z,12.30
2018-03-23T09:48:35.589Z,11.70
2018-03-23T09:49:35.549Z,12.20
2018-03-23T09:50:35.512Z,12.10
2018-03-23T09:51:35.500Z,12.20
2018-03-23T09:52:35.432Z,12.40
2018-03-23T09:53:35.404Z,11.80
2018-03-23T09:54:35.358Z,11.90
2018-03-23T09:55:35.322Z,11.40
2018-03-23T09:56:35.313Z,11.50
2018-03-23T09:57:35.245Z,11.50
2018-03-23T09:58:35.211Z,10.50
2018-03-23T09:59:35.161Z,9.90
2018-03-23T10:00:35.132Z,8.50
2018-03-23T10:01:35.089Z,8.40
2018-03-23T10:02:35.080Z,8.40
2018-03-23T10:03:35.007Z,8.60
2018-03-23T10:04:34.968Z,8.40
2018-03-23T10:05:34.938Z,8.80
2018-03-23T10:06:34.899Z,9.10
2018-03-23T10:07:34.866Z,9.00
2018-03-23T10:08:34.855Z,9.40
2018-03-23T10:09:34.784Z,8.80
2018-03-23T10:10:34.745Z,9.10
2018-03-23T10:11:34.703Z,9.30
2018-03-23T10:12:34.671Z,9.30
2018-03-23T10:13:34.666Z,9.40
2018-03-23T10:14:34.595Z,9.80
2018-03-23T10:15:34.566Z,9.80
2018-03-23T10:16:34.519Z,9.80
2018-03-23T10:17:34.486Z,9.40
2018-03-23T10:18:34.453Z,9.10
2018-03-23T10:19:34.433Z,9.70
2018-03-23T10:20:34.377Z,10.10
2018-03-23T10:21:34.325Z,10.30
2018-03-23T10:22:34.304Z,10.50
2018-03-23T10:23:34.256Z,10.40
2018-03-23T10:24:34.223Z,11.00
2018-03-23T10:25:34.200Z,11.00
2018-03-23T10:26:34.147Z,10.70
2018-03-23T10:27:34.108Z,10.90
2018-03-23T10:28:34.112Z,11.00
2018-03-23T10:29:34.026Z,10.90
2018-03-23T10:30:34.010Z,11.40
2018-03-23T10:31:33.945Z,10.80
2018-03-23T10:32:33.909Z,11.60
2018-03-23T10:33:33.872Z,11.60
2018-03-23T10:34:33.828Z,11.50
2018-03-23T10:35:33.822Z,11.40
2018-03-23T10:36:33.751Z,11.90
2018-03-23T10:37:33.703Z,11.70
2018-03-23T10:38:33.673Z,11.50
2018-03-23T10:39:33.630Z,12.00
2018-03-23T10:40:33.590Z,12.00
2018-03-23T10:41:33.586Z,12.90
2018-03-23T10:42:33.509Z,13.10
2018-03-23T10:43:33.478Z,13.20
2018-03-23T10:44:33.440Z,13.40
2018-03-23T10:45:33.399Z,13.80
2018-03-23T10:46:33.359Z,13.50
2018-03-23T10:47:33.340Z,12.40
2018-03-23T10:48:33.301Z,12.90
2018-03-23T10:49:33.241Z,12.90
2018-03-23T10:50:33.200Z,13.30
2018-03-23T10:51:33.163Z,12.40
2018-03-23T10:52:33.142Z,12.50
2018-03-23T10:53:33.125Z,13.60
2018-03-23T10:54:33.050Z,13.70
2018-03-23T10:55:33.011Z,13.30
2018-03-23T10:56:32.970Z,13.60
2018-03-23T10:57:32.951Z,13.30
2018-03-23T10:58:32.887Z,12.60
2018-03-23T10:59:32.841Z,13.50
2018-03-23T11:00:32.805Z,13.10
2018-03-23T11:01:32.767Z,13.10
2018-03-23T11:02:32.726Z,13.00
2018-03-23T11:03:32.712Z,13.30
2018-03-23T11:04:32.645Z,13.30
2018-03-23T11:05:32.624Z,13.90
2018-03-23T11:06:32.568Z,13.60
2018-03-23T11:07:32.539Z,13.30
2018-03-23T11:08:32.486Z,13.60
2018-03-23T11:09:32.461Z,13.80
2018-03-23T11:10:32.407Z,13.60
2018-03-23T11:11:32.364Z,13.20
2018-03-23T11:12:32.324Z,13.60
2018-03-23T11:13:32.289Z,13.40
2018-03-23T11:14:32.284Z,12.50
2018-03-23T11:15:32.205Z,11.90
2018-03-23T11:16:32.182Z,12.50
2018-03-23T11:17:32.121Z,12.00
2018-03-23T11:18:32.115Z,11.80
2018-03-23T11:19:32.048Z,11.70
2018-03-23T11:20:32.040Z,11.90
2018-03-23T11:21:31.968Z,10.90
2018-03-23T11:22:31.929Z,11.30
2018-03-23T11:23:31.901Z,11.10
2018-03-23T11:24:31.879Z,10.90
2018-03-23T11:25:31.830Z,10.90
2018-03-23T11:26:31.795Z,11.10
2018-03-23T11:27:31.742Z,11.30
2018-03-23T11:28:31.694Z,11.40
2018-03-23T11:29:31.648Z,10.90
2018-03-23T11:30:31.622Z,11.50
2018-03-23T11:31:31.574Z,10.80
2018-03-23T11:32:31.551Z,11.30
2018-03-23T11:33:31.500Z,12.00
2018-03-23T11:34:31.448Z,12.20
2018-03-23T11:35:31.416Z,11.80
2018-03-23T11:36:31.371Z,12.00
2018-03-23T11:37:31.360Z,11.80
2018-03-23T11:38:31.305Z,11.90
2018-03-23T11:39:31.264Z,12.10
2018-03-23T11:40:31.220Z,12.30
2018-03-23T11:41:31.175Z,12.30
2018-03-23T11:42:31.162Z,12.30
2018-03-23T11:43:31.107Z,12.40
2018-03-23T11:44:31.064Z,12.50
2018-03-23T11:45:31.017Z,11.90
2018-03-23T11:46:30.968Z,12.30
2018-03-23T11:47:30.934Z,12.60
2018-03-23T11:48:30.922Z,12.70
2018-03-23T11:49:30.848Z,12.30
2018-03-23T11:50:30.818Z,12.40
2018-03-23T11:51:30.797Z,12.80
2018-03-23T11:52:30.739Z,12.40
2018-03-23T11:53:30.700Z,12.90
2018-03-23T11:54:30.709Z,12.30
2018-03-23T11:55:30.622Z,12.60
2018-03-23T11:56:30.577Z,13.20
2018-03-23T11:57:30.533Z,13.00
2018-03-23T11:58:30.493Z,13.30
2018-03-23T11:59:30.543Z,13.10
2018-03-23T12:00:30.420Z,13.10
2018-03-23T12:01:30.377Z,13.30
2018-03-23T12:02:30.351Z,13.60
2018-03-23T12:03:30.290Z,13.60
2018-03-23T12:04:30.258Z,13.80
2018-03-23T12:05:30.280Z,13.40
2018-03-23T12:06:30.177Z,13.20
2018-03-23T12:07:30.158Z,14.50
2018-03-23T12:08:30.098Z,13.50
2018-03-23T12:09:30.071Z,14.10
2018-03-23T12:10:30.017Z,14.10
2018-03-23T12:11:30.024Z,14.50
2018-03-23T12:12:29.937Z,14.20
2018-03-23T12:13:29.891Z,14.50
2018-03-23T12:14:29.885Z,14.40
2018-03-23T12:15:29.846Z,14.00
2018-03-23T12:16:29.771Z,14.00
2018-03-23T12:17:29.753Z,14.00
2018-03-23T12:18:29.704Z,14.30
2018-03-23T12:19:29.661Z,13.50
2018-03-23T12:20:29.619Z,14.30
2018-03-23T12:21:29.654Z,14.10
2018-03-23T12:22:29.552Z,14.40
2018-03-23T12:23:29.488Z,13.30
2018-03-23T12:24:29.464Z,14.10
2018-03-23T12:25:29.419Z,12.70
2018-03-23T12:26:29.411Z,12.90
2018-03-23T12:27:29.374Z,13.40
2018-03-23T12:28:29.291Z,13.50
2018-03-23T12:29:29.262Z,12.90
2018-03-23T12:30:29.227Z,14.00
2018-03-23T12:31:29.198Z,13.00
2018-03-23T12:32:29.170Z,13.10
2018-03-23T12:33:29.089Z,12.50
2018-03-23T12:34:29.065Z,12.00
2018-03-23T12:35:29.025Z,11.70
2018-03-23T12:36:28.984Z,12.50
2018-03-23T12:37:28.948Z,12.60
2018-03-23T12:38:28.919Z,12.30
2018-03-23T12:39:28.868Z,12.50
2018-03-23T12:40:28.830Z,12.50
2018-03-23T12:41:28.790Z,12.40
2018-03-23T12:42:28.731Z,12.20
2018-03-23T12:43:28.701Z,12.20
2018-03-23T12:44:28.697Z,12.20
2018-03-23T12:45:28.637Z,12.20
2018-03-23T12:46:28.592Z,12.00
2018-03-23T12:47:28.553Z,12.20
2018-03-23T12:48:28.505Z,12.00
2018-03-23T12:49:28.457Z,12.10
2018-03-23T12:50:28.458Z,11.40
2018-03-23T12:51:28.392Z,12.00
2018-03-23T12:52:28.344Z,11.70
2018-03-23T12:53:28.299Z,12.40